createdAt,value
2022-12-08T00:01:22.140Z,3.2
2022-12-08T00:21:23.285Z,2.9
2022-12-08T00:31:23.741Z,2.8
2022-12-08T00:41:24.419Z,2.9
2022-12-08T01:01:25.416Z,3.1
2022-12-08T01:11:26.324Z,3.1
2022-12-08T01:21:27.128Z,3.2
2022-12-08T01:31:28.234Z,3.2
2022-12-08T01:41:28.842Z,3.2
2022-12-08T01:51:29.141Z,3.2
2022-12-08T02:01:29.483Z,3.2
2022-12-08T02:21:29.977Z,3.2
2022-12-08T02:31:30.431Z,3.2
2022-12-08T02:51:31.628Z,3.3
2022-12-08T03:01:32.209Z,3.3
2022-12-08T03:11:32.329Z,3.4
2022-12-08T03:21:33.149Z,3.3
2022-12-08T03:51:34.723Z,3.3
2022-12-08T04:01:35.451Z,3.3
2022-12-08T04:11:36.195Z,3.3
2022-12-08T04:21:37.248Z,3.3
2022-12-08T04:31:37.696Z,3.3
2022-12-08T04:41:38.260Z,3.3
2022-12-08T04:51:38.508Z,3.3
2022-12-08T05:01:39.256Z,3.4
2022-12-08T05:11:42.725Z,3.4
2022-12-08T05:21:40.026Z,3.3
2022-12-08T05:31:41.086Z,3.2
2022-12-08T05:41:41.476Z,3.3
2022-12-08T05:51:41.708Z,3.2
2022-12-08T06:11:42.476Z,3.3
2022-12-08T06:21:42.600Z,3.3
2022-12-08T06:31:43.641Z,3.2
2022-12-08T06:41:44.638Z,3.2
2022-12-08T06:51:44.870Z,3.2
2022-12-08T07:01:45.923Z,3.1
2022-12-08T07:11:46.769Z,3
2022-12-08T07:21:47.205Z,3
2022-12-08T07:59:56.836Z,3
2022-12-08T08:08:31.313Z,3
2022-12-08T08:18:31.460Z,2.9
2022-12-08T08:48:32.348Z,2.7
2022-12-08T09:18:34.237Z,2.5
2022-12-08T09:28:34.451Z,2.4
2022-12-08T09:38:34.870Z,2.4
2022-12-08T09:58:35.430Z,2.6
2022-12-08T10:08:36.085Z,2.7
2022-12-08T10:18:36.798Z,2.8
2022-12-08T10:28:42.925Z,3.1
2022-12-08T10:38:37.536Z,3.2
2022-12-08T10:48:38.508Z,3.3
2022-12-08T10:58:39.171Z,3.3
2022-12-08T11:08:39.842Z,3.4
2022-12-08T11:18:40.450Z,3.5
2022-12-08T11:38:42.046Z,3.5
2022-12-08T11:48:42.693Z,3.5
2022-12-08T11:58:43.656Z,3.5
2022-12-08T12:08:44.223Z,3.5
2022-12-08T12:28:45.733Z,3.4
2022-12-08T12:58:47.255Z,3.5
2022-12-08T13:08:48.060Z,3.4
2022-12-08T13:18:49.162Z,3.4
2022-12-08T13:28:50.038Z,3.4
2022-12-08T13:38:50.705Z,3.4
2022-12-08T13:49:53.009Z,3.4
2022-12-08T13:58:52.124Z,3.4
2022-12-08T14:09:05.236Z,3.4
2022-12-08T15:38:57.777Z,3
2022-12-08T15:48:58.689Z,3
2022-12-08T15:58:59.511Z,3
2022-12-08T16:09:11.004Z,3
2022-12-08T16:28:59.840Z,3
2022-12-08T16:39:00.746Z,3
2022-12-08T16:49:01.220Z,3
2022-12-08T16:59:01.431Z,3
2022-12-08T17:09:01.783Z,3
2022-12-08T17:29:02.167Z,3
2022-12-08T17:49:03.583Z,3
2022-12-08T18:09:04.264Z,2.9
2022-12-08T18:19:04.890Z,2.9
2022-12-08T18:29:05.366Z,2.8
2022-12-08T18:39:10.360Z,2.7
2022-12-08T18:49:06.274Z,2.7
2022-12-08T18:59:06.899Z,2.5
2022-12-08T19:09:07.142Z,2.5
2022-12-08T19:19:07.746Z,2.5
2022-12-08T19:29:07.973Z,2.5
2022-12-08T19:49:09.232Z,2.6
2022-12-08T19:59:10.148Z,2.6
2022-12-08T20:09:10.556Z,2.5
2022-12-08T20:29:11.548Z,2.4
2022-12-08T20:39:12.296Z,2.3
2022-12-08T20:59:13.970Z,1.8
2022-12-08T21:09:14.564Z,1.7
2022-12-08T21:19:14.923Z,1.5
2022-12-08T21:29:14.983Z,1.4
2022-12-08T21:39:15.236Z,1.3
2022-12-08T21:59:17.014Z,1.2
2022-12-08T22:09:17.428Z,1.1
2022-12-08T22:29:19.109Z,0.7
2022-12-08T22:39:19.205Z,0.8
2022-12-08T22:49:19.621Z,0.9
2022-12-08T22:59:20.251Z,0.7
2022-12-08T23:09:20.955Z,0.8
2022-12-08T23:29:21.834Z,0.7
2022-12-08T23:39:22.385Z,0.6
2022-12-08T23:49:23.429Z,0.7
2022-12-08T23:59:24.104Z,0.7
